Time;durP1;ratioP1;P1;durP2;ratioP2;P2;SDS_P1;SDS_P2;PMS_P1;PMS_P2;Temp;Humidity;BMP_temperature;BMP_pressure;BME280_temperature;BME280_humidity;BME280_pressure;Samples;Min_cycle;Max_cycle;Signal;HPM_P1;HPM_P2
2021/06/27 00:33:14;;;;;;;15.15;10.23;;;14.00;99.90;;;;;;6220370;23;20447;-94
2021/06/27 00:35:41;;;;;;;12.40;10.07;;;14.10;99.90;;;;;;6169627;23;20411;-94
2021/06/27 00:38:09;;;;;;;13.63;10.40;;;14.10;99.90;;;;;;6192721;23;20801;-96
2021/06/27 00:40:36;;;;;;;16.65;10.70;;;14.00;99.90;;;;;;6194795;23;20383;-94
2021/06/27 00:43:06;;;;;;;13.15;10.98;;;14.10;99.90;;;;;;6199699;23;20748;-94
2021/06/27 00:45:35;;;;;;;14.57;11.13;;;13.90;99.90;;;;;;6195837;23;20418;-96
2021/06/27 00:48:05;;;;;;;14.57;11.35;;;13.90;99.90;;;;;;6196752;23;20414;-94
2021/06/27 00:50:43;;;;;;;12.85;10.85;;;13.90;99.90;;;;;;6198069;23;20473;-96
2021/06/27 00:53:11;;;;;;;13.95;11.60;;;13.80;99.90;;;;;;6195031;23;20423;-96
2021/06/27 00:55:40;;;;;;;15.23;11.60;;;13.70;99.90;;;;;;6194751;23;20415;-95
2021/06/27 00:58:08;;;;;;;14.18;11.38;;;13.70;99.90;;;;;;6197407;23;20796;-94
2021/06/27 05:51:52;;;;;;;9.50;8.13;;;15.90;99.90;;;;;;6187897;23;20868;-96
2021/06/27 05:55:06;;;;;;;10.27;8.15;;;16.00;99.90;;;;;;6162739;23;20393;-96
2021/06/27 06:59:21;;;;;;;5.63;4.28;;;21.30;99.90;;;;;;6169025;22;20438;-95
2021/06/27 07:01:48;;;;;;;6.47;4.22;;;21.40;99.90;;;;;;6136148;23;20410;-93
2021/06/27 07:10:00;;;;;;;6.35;4.32;;;21.50;99.90;;;;;;6203214;22;20581;-96
2021/06/27 07:12:27;;;;;;;5.15;4.10;;;21.80;99.90;;;;;;6200891;23;20394;-96
2021/06/27 07:15:15;;;;;;;5.85;3.95;;;21.70;99.90;;;;;;6202459;23;20387;-96
2021/06/27 07:17:43;;;;;;;5.03;4.30;;;21.70;99.90;;;;;;6199514;23;20476;-96
2021/06/27 07:20:12;;;;;;;6.20;4.35;;;21.70;99.90;;;;;;6198911;23;20388;-96
2021/06/27 07:22:40;;;;;;;6.88;4.10;;;21.60;99.90;;;;;;6194058;23;20883;-94
2021/06/27 07:25:08;;;;;;;5.18;3.90;;;21.60;99.90;;;;;;6191280;23;20387;-96
2021/06/27 07:27:36;;;;;;;4.40;3.80;;;21.50;99.90;;;;;;6191113;23;20411;-93
2021/06/27 07:30:06;;;;;;;6.13;4.18;;;21.70;99.90;;;;;;6190769;23;20374;-96
2021/06/27 07:32:34;;;;;;;5.53;3.88;;;22.00;99.90;;;;;;6189981;23;20394;-96
2021/06/27 07:35:01;;;;;;;4.15;3.65;;;22.10;99.90;;;;;;6191772;23;20943;-96
2021/06/27 07:37:41;;;;;;;5.82;3.70;;;22.30;99.90;;;;;;6194887;23;20754;-96
2021/06/27 07:40:09;;;;;;;7.13;4.20;;;22.30;99.90;;;;;;6190841;23;20483;-94
2021/06/27 07:42:36;;;;;;;5.75;3.97;;;22.30;99.90;;;;;;6190679;23;20383;-95
2021/06/27 07:45:05;;;;;;;4.57;3.38;;;22.10;99.90;;;;;;6189929;23;20391;-96
2021/06/27 07:47:32;;;;;;;4.72;3.40;;;22.20;99.90;;;;;;6191924;23;20461;-96
2021/06/27 07:50:00;;;;;;;5.40;3.47;;;22.30;99.90;;;;;;6189865;23;20387;-94
2021/06/27 07:52:27;;;;;;;5.22;3.70;;;22.20;99.90;;;;;;6191993;23;20412;-95
2021/06/27 07:54:54;;;;;;;3.88;3.42;;;22.20;99.90;;;;;;6191101;23;20388;-95
2021/06/27 07:57:22;;;;;;;4.95;3.00;;;22.50;99.90;;;;;;6191488;23;20414;-93
2021/06/27 07:59:49;;;;;;;4.00;3.38;;;22.60;99.90;;;;;;6190015;23;20407;-95
2021/06/27 08:02:16;;;;;;;3.87;3.30;;;22.50;99.90;;;;;;6191175;23;20387;-95
2021/06/27 08:04:43;;;;;;;5.38;3.60;;;22.40;99.90;;;;;;6190590;23;20446;-93
2021/06/27 08:07:10;;;;;;;4.22;3.40;;;22.50;99.90;;;;;;6191890;23;20694;-94
2021/06/27 08:09:37;;;;;;;4.95;3.80;;;22.40;99.90;;;;;;6192107;23;20836;-95
2021/06/27 08:12:05;;;;;;;5.47;3.70;;;22.50;99.90;;;;;;6190556;23;20382;-96
2021/06/27 08:14:32;;;;;;;4.38;3.47;;;22.60;99.90;;;;;;6190572;23;20394;-96
2021/06/27 08:17:00;;;;;;;6.60;3.65;;;22.50;99.90;;;;;;6190656;23;20384;-96
2021/06/27 08:19:27;;;;;;;3.75;3.10;;;22.80;99.90;;;;;;6189835;23;20403;-94
2021/06/27 08:21:54;;;;;;;3.78;3.35;;;23.00;99.90;;;;;;6190453;23;20406;-94
2021/06/27 08:24:21;;;;;;;5.93;3.40;;;22.90;99.90;;;;;;6190000;23;20475;-95
2021/06/27 08:26:50;;;;;;;3.67;3.30;;;22.90;99.90;;;;;;6190270;23;20390;-94
2021/06/27 08:29:18;;;;;;;6.13;3.83;;;22.50;99.90;;;;;;6190447;23;20419;-94
2021/06/27 08:31:45;;;;;;;5.90;3.42;;;22.30;99.90;;;;;;6189734;23;20384;-94
2021/06/27 08:34:13;;;;;;;4.20;3.47;;;22.50;99.90;;;;;;6190382;23;20471;-96
2021/06/27 08:36:40;;;;;;;4.30;3.70;;;22.70;99.90;;;;;;6190707;23;20390;-96
2021/06/27 08:39:07;;;;;;;4.30;3.30;;;22.60;99.90;;;;;;6189981;23;20407;-94
2021/06/27 08:41:34;;;;;;;3.75;3.35;;;22.40;99.90;;;;;;6193800;23;20384;-95
2021/06/27 08:44:04;;;;;;;4.60;3.30;;;22.50;99.90;;;;;;6212082;23;20419;-95
2021/06/27 08:46:36;;;;;;;4.77;3.27;;;22.60;99.90;;;;;;6194172;23;20416;-96
2021/06/27 08:49:04;;;;;;;3.40;3.00;;;22.70;99.90;;;;;;6194655;23;20717;-96
2021/06/27 08:51:41;;;;;;;3.92;3.10;;;22.60;99.90;;;;;;6192204;23;20407;-96
2021/06/27 08:54:10;;;;;;;5.43;3.30;;;22.60;99.90;;;;;;6190801;23;20467;-96
2021/06/27 08:56:39;;;;;;;4.07;3.30;;;22.50;99.90;;;;;;6192010;23;20392;-96
2021/06/27 08:59:07;;;;;;;3.85;3.25;;;22.10;99.90;;;;;;6195125;23;20435;-93
2021/06/27 09:01:34;;;;;;;5.47;3.10;;;22.10;99.90;;;;;;6191468;23;20768;-92
2021/06/27 09:04:01;;;;;;;3.90;3.20;;;22.30;99.90;;;;;;6191523;23;20806;-93
2021/06/27 09:06:28;;;;;;;3.57;3.10;;;22.70;99.90;;;;;;6191456;23;20384;-93
2021/06/27 09:09:21;;;;;;;3.95;3.03;;;22.80;99.90;;;;;;6192574;23;20682;-93
2021/06/27 09:12:06;;;;;;;3.13;2.90;;;23.20;99.90;;;;;;6183258;23;20392;-96
2021/06/27 09:14:35;;;;;;;4.35;2.80;;;23.20;99.90;;;;;;6192681;23;20410;-95
2021/06/27 09:20:56;;;;;;;7.40;2.53;;;23.20;99.90;;;;;;6224369;23;20518;-96
2021/06/27 09:23:48;;;;;;;3.17;2.65;;;23.00;99.90;;;;;;6198565;23;20363;-96
2021/06/27 09:27:05;;;;;;;4.37;2.60;;;23.20;99.90;;;;;;6200539;23;20455;-93
2021/06/27 09:48:22;;;;;;;4.93;2.80;;;22.40;99.90;;;;;;6182755;23;20404;-96
2021/06/27 09:53:55;;;;;;;2.92;2.63;;;22.50;99.90;;;;;;6203223;23;20385;-96
2021/06/27 09:59:59;;;;;;;11.00;3.50;;;23.20;99.90;;;;;;6190644;23;20421;-87
2021/06/27 10:02:26;;;;;;;2.70;2.50;;;23.60;99.90;;;;;;6188853;23;20883;-86
2021/06/27 10:04:53;;;;;;;2.40;2.20;;;23.80;99.90;;;;;;6162753;23;20373;-89
2021/06/27 10:07:35;;;;;;;3.35;2.42;;;23.90;99.90;;;;;;6166412;23;20420;-89
2021/06/27 10:10:18;;;;;;;3.55;2.28;;;24.20;99.90;;;;;;6167665;23;20472;-88
2021/06/27 10:12:45;;;;;;;4.95;2.50;;;24.50;99.90;;;;;;6180096;23;20380;-89
2021/06/27 10:15:14;;;;;;;3.83;2.30;;;24.50;99.90;;;;;;6217784;23;20376;-89
2021/06/27 10:17:48;;;;;;;2.50;2.30;;;24.60;99.90;;;;;;6197618;23;20867;-89
2021/06/27 10:20:16;;;;;;;3.20;2.50;;;24.20;99.90;;;;;;6196406;23;20400;-89
2021/06/27 10:22:44;;;;;;;3.67;2.30;;;24.30;99.90;;;;;;6206117;23;20372;-90
2021/06/27 10:25:15;;;;;;;3.28;1.90;;;24.70;99.90;;;;;;6201552;23;20422;-91
2021/06/27 10:27:42;;;;;;;2.35;2.15;;;24.90;99.90;;;;;;6190210;23;20467;-92
2021/06/27 10:30:13;;;;;;;3.50;2.08;;;24.90;99.90;;;;;;6197852;23;20388;-93
2021/06/27 10:32:44;;;;;;;2.40;2.20;;;24.90;99.90;;;;;;6193569;23;20380;-94
2021/06/27 10:35:12;;;;;;;3.85;2.13;;;24.90;99.10;;;;;;6192068;23;20391;-86
2021/06/27 10:37:43;;;;;;;4.40;2.13;;;25.00;99.90;;;;;;6190616;23;20872;-93
2021/06/27 10:40:13;;;;;;;2.50;2.30;;;25.10;99.90;;;;;;6190430;23;20868;-86
2021/06/27 10:42:49;;;;;;;3.90;2.30;;;25.40;99.90;;;;;;6216339;23;20380;-92
2021/06/27 10:45:20;;;;;;;2.75;2.40;;;25.20;99.90;;;;;;6190907;23;20434;-86
2021/06/27 10:47:49;;;;;;;4.97;2.20;;;24.90;99.90;;;;;;6190840;23;20477;-95
2021/06/27 10:50:18;;;;;;;2.95;1.90;;;24.90;99.90;;;;;;6166246;23;20415;-95
2021/06/27 10:52:51;;;;;;;3.70;2.28;;;25.10;99.90;;;;;;6191263;23;20391;-95
2021/06/27 10:55:39;;;;;;;2.83;2.13;;;24.90;99.90;;;;;;6190709;23;20387;-94
2021/06/27 10:58:35;;;;;;;2.63;2.30;;;24.70;99.90;;;;;;6192056;23;20441;-96
2021/06/27 11:01:19;;;;;;;3.37;2.10;;;24.50;99.90;;;;;;6109362;23;20401;-96
2021/06/27 11:04:18;;;;;;;2.28;2.08;;;24.70;99.90;;;;;;6112776;23;20401;-96
2021/06/27 11:07:29;;;;;;;2.60;2.03;;;25.00;98.70;;;;;;6103613;23;20365;-96
2021/06/27 11:10:39;;;;;;;2.33;1.90;;;25.30;99.90;;;;;;6112212;23;20472;-96
2021/06/27 11:13:20;;;;;;;4.10;2.00;;;25.30;96.10;;;;;;6059726;23;20396;-96
2021/06/27 11:15:50;;;;;;;2.28;2.00;;;25.40;97.70;;;;;;6112669;23;20473;-96
2021/06/27 11:18:33;;;;;;;2.30;2.10;;;25.70;97.00;;;;;;6110981;23;20436;-96
2021/06/27 11:21:25;;;;;;;2.50;1.90;;;25.80;98.00;;;;;;6110223;23;20873;-96
2021/06/27 11:24:35;;;;;;;5.35;2.03;;;25.80;96.20;;;;;;6110414;23;20400;-96
2021/06/27 11:27:36;;;;;;;2.55;1.88;;;25.40;96.20;;;;;;6117557;23;20420;-96
2021/06/27 11:30:27;;;;;;;2.33;2.00;;;25.00;97.30;;;;;;6108472;23;20400;-94
2021/06/27 11:32:54;;;;;;;2.30;2.00;;;24.70;99.90;;;;;;6106988;23;20407;-95
2021/06/27 11:35:49;;;;;;;2.20;1.90;;;24.40;99.90;;;;;;6107226;23;20424;-95
2021/06/27 11:38:36;;;;;;;2.53;2.10;;;24.50;99.10;;;;;;6154468;23;20690;-95
2021/06/27 11:41:09;;;;;;;2.20;2.00;;;24.90;99.90;;;;;;6196445;23;20471;-96
2021/06/27 11:44:17;;;;;;;2.20;1.83;;;25.20;99.90;;;;;;6226519;23;20754;-94
2021/06/27 11:46:48;;;;;;;1.95;1.83;;;25.60;96.20;;;;;;6218823;23;20392;-84
2021/06/27 11:49:25;;;;;;;1.88;1.77;;;26.10;97.80;;;;;;6215382;23;20479;-83
2021/06/27 11:51:53;;;;;;;2.25;2.00;;;26.60;94.60;;;;;;6214269;23;20477;-83
2021/06/27 11:54:26;;;;;;;2.15;1.95;;;26.80;93.30;;;;;;6187861;23;20384;-84
2021/06/27 11:57:01;;;;;;;2.50;1.75;;;26.40;91.40;;;;;;6188786;23;20388;-87
2021/06/27 11:59:37;;;;;;;2.40;1.73;;;26.40;96.00;;;;;;6215436;23;20399;-85
2021/06/27 12:02:27;;;;;;;2.10;1.80;;;26.90;91.60;;;;;;6159721;23;20377;-85
2021/06/27 12:04:58;;;;;;;1.88;1.70;;;27.50;92.60;;;;;;6164055;23;20444;-84
2021/06/27 12:07:34;;;;;;;2.53;1.70;;;28.00;90.60;;;;;;6158983;23;20445;-84
2021/06/27 12:10:10;;;;;;;2.78;1.77;;;28.30;90.60;;;;;;6159068;23;20904;-84
2021/06/27 12:12:42;;;;;;;1.70;1.60;;;29.00;92.70;;;;;;6184880;23;20423;-84
2021/06/27 12:15:18;;;;;;;3.13;1.90;;;28.90;92.50;;;;;;6159661;23;20374;-88
2021/06/27 12:17:47;;;;;;;2.03;1.70;;;29.00;88.60;;;;;;6159108;23;20426;-83
2021/06/27 12:20:16;;;;;;;4.10;1.60;;;29.40;92.60;;;;;;6159436;23;20393;-84
2021/06/27 12:22:52;;;;;;;2.75;1.73;;;29.60;83.30;;;;;;6159796;23;20428;-92
2021/06/27 12:25:27;;;;;;;2.10;1.70;;;30.10;82.00;;;;;;6185269;23;20445;-85
2021/06/27 12:27:56;;;;;;;4.03;1.70;;;30.30;81.80;;;;;;6185009;23;20384;-85
2021/06/27 12:30:42;;;;;;;3.58;1.92;;;30.50;78.30;;;;;;6161426;23;20381;-95
2021/06/27 12:33:21;;;;;;;1.80;1.70;;;30.90;79.20;;;;;;6162330;23;20432;-95
2021/06/27 12:35:52;;;;;;;2.15;1.70;;;31.00;76.10;;;;;;6161996;23;20449;-94
2021/06/27 12:39:01;;;;;;;2.43;1.90;;;30.50;75.00;;;;;;6166611;23;20385;-96
2021/06/27 12:41:40;;;;;;;4.60;1.98;;;30.30;74.10;;;;;;6191179;23;20408;-96
2021/06/27 12:45:05;;;;;;;3.33;1.77;;;30.20;82.50;;;;;;6203458;23;20367;-96
2021/06/27 12:50:44;;;;;;;2.30;1.90;;;31.10;79.40;;;;;;6195492;23;20404;-96
2021/06/27 12:53:15;;;;;;;4.00;2.05;;;31.50;77.50;;;;;;6113827;23;20456;-95
2021/06/27 12:56:18;;;;;;;3.40;2.00;;;31.60;73.70;;;;;;6122238;23;20469;-96
2021/06/27 12:58:57;;;;;;;2.45;1.70;;;31.70;73.90;;;;;;6103474;23;20467;-91
2021/06/27 13:01:26;;;;;;;2.63;1.42;;;31.60;66.70;;;;;;6132086;23;20396;-96
2021/06/27 13:03:59;;;;;;;2.30;1.80;;;31.40;71.40;;;;;;6139906;23;20384;-94
2021/06/27 13:06:58;;;;;;;4.07;2.10;;;31.10;74.50;;;;;;6160724;23;20391;-96
2021/06/27 13:09:29;;;;;;;5.85;2.05;;;31.00;64.10;;;;;;6198941;23;20375;-96
2021/06/27 13:12:26;;;;;;;2.63;1.88;;;31.60;71.10;;;;;;6204398;23;20395;-96
2021/06/27 13:15:17;;;;;;;2.63;2.20;;;31.50;72.70;;;;;;6201485;23;20380;-95
2021/06/27 13:23:35;;;;;;;2.28;2.08;;;31.50;66.80;;;;;;6181091;23;20393;-96
2021/06/27 13:26:20;;;;;;;2.30;1.98;;;31.20;68.40;;;;;;6176406;23;20381;-94
2021/06/27 13:28:50;;;;;;;3.35;2.20;;;31.30;66.20;;;;;;6171373;23;20688;-95
2021/06/27 13:31:31;;;;;;;2.30;2.10;;;30.80;67.50;;;;;;6164350;23;20568;-95
2021/06/27 13:34:01;;;;;;;2.25;2.05;;;31.40;67.20;;;;;;6199971;23;20478;-96
2021/06/27 13:36:39;;;;;;;3.57;1.90;;;31.90;70.30;;;;;;6166534;23;20393;-96
2021/06/27 13:39:16;;;;;;;1.70;1.60;;;31.80;68.20;;;;;;6165027;23;20448;-94
2021/06/27 13:41:48;;;;;;;2.53;1.83;;;31.10;62.30;;;;;;6171142;23;20377;-96
2021/06/27 13:44:20;;;;;;;2.05;1.70;;;30.90;66.80;;;;;;6187125;23;20361;-96
2021/06/27 13:47:09;;;;;;;2.80;2.30;;;30.60;70.20;;;;;;6177336;23;20389;-96
2021/06/27 14:17:53;;;;;;;4.63;2.20;;;31.90;69.70;;;;;;6181559;23;20387;-94
2021/06/27 14:20:22;;;;;;;3.13;2.07;;;32.10;67.40;;;;;;6192061;23;20829;-94
2021/06/27 14:57:54;;;;;;;3.33;2.42;;;30.60;68.70;;;;;;6171727;23;20388;-91
2021/06/27 15:09:10;;;;;;;;;;;;;;;;;;;;;
2021/06/27 15:11:58;;;;;;;2.33;2.13;;;29.30;78.20;;;;;;6063740;23;20868;-94
2021/06/27 15:14:28;;;;;;;3.53;2.30;;;29.00;73.50;;;;;;6068676;23;20411;-96
2021/06/27 15:17:02;;;;;;;3.97;2.27;;;29.00;74.40;;;;;;6068213;23;20392;-96
2021/06/27 15:19:29;;;;;;;3.55;2.28;;;28.80;77.00;;;;;;6044791;23;20428;-96
2021/06/27 15:21:56;;;;;;;2.90;2.28;;;28.60;75.00;;;;;;6069883;23;20968;-96
2021/06/27 15:24:26;;;;;;;3.00;2.20;;;28.70;79.20;;;;;;6093728;23;20400;-96
2021/06/27 15:26:57;;;;;;;3.22;2.10;;;29.20;77.80;;;;;;6080466;23;20408;-94
2021/06/27 15:29:26;;;;;;;3.00;2.03;;;30.10;76.50;;;;;;6071661;23;20495;-95
2021/06/27 15:32:14;;;;;;;3.17;2.10;;;30.80;75.20;;;;;;6069340;23;20395;-95
2021/06/27 15:34:48;;;;;;;3.30;2.13;;;31.20;70.20;;;;;;6071178;23;20484;-95
2021/06/27 15:37:18;;;;;;;3.30;1.95;;;31.30;68.90;;;;;;6069643;23;20396;-96
2021/06/27 15:39:46;;;;;;;2.40;2.10;;;31.30;69.10;;;;;;6068691;23;20463;-95
2021/06/27 15:42:14;;;;;;;3.17;2.28;;;31.00;66.60;;;;;;6118234;23;20415;-96
2021/06/27 15:53:59;;;;;;;2.78;2.50;;;30.50;71.40;;;;;;6203024;23;20448;-96
2021/06/27 16:51:07;;;;;;;2.67;2.25;;;27.70;82.20;;;;;;6199424;23;20403;-95
2021/06/27 16:53:44;;;;;;;2.70;2.30;;;28.30;79.30;;;;;;6178565;23;20411;-93
2021/06/27 16:56:12;;;;;;;3.13;2.10;;;28.30;81.80;;;;;;6165681;23;20492;-95
2021/06/27 16:58:39;;;;;;;3.15;2.08;;;28.40;76.30;;;;;;6163058;23;20453;-95
2021/06/27 17:01:45;;;;;;;3.60;2.17;;;28.20;79.10;;;;;;6183649;23;20404;-96
2021/06/27 17:04:30;;;;;;;2.85;2.20;;;27.70;80.90;;;;;;6176542;23;20409;-93
2021/06/27 17:06:58;;;;;;;6.15;2.58;;;27.10;82.30;;;;;;6167185;23;20390;-96
2021/06/27 17:09:38;;;;;;;3.80;2.38;;;26.10;83.90;;;;;;6195586;23;20399;-96
2021/06/27 17:16:01;;;;;;;4.85;2.50;;;25.00;90.10;;;;;;6153939;23;21259;31
2021/06/27 17:19:11;;;;;;;4.05;2.72;;;24.70;90.00;;;;;;6109361;23;20382;-96
2021/06/27 17:22:24;;;;;;;4.03;3.00;;;24.60;92.60;;;;;;6083924;23;20384;-96
2021/06/27 17:28:26;;;;;;;3.47;2.78;;;24.80;91.00;;;;;;6137486;23;20424;-96
2021/06/27 17:40:36;;;;;;;5.72;2.90;;;23.40;95.30;;;;;;6200977;23;20393;-96
2021/06/27 17:43:09;;;;;;;4.10;2.80;;;23.50;95.10;;;;;;6151403;23;20393;-96
2021/06/27 17:45:50;;;;;;;5.63;2.80;;;23.60;95.80;;;;;;6166573;23;20407;-95
2021/06/27 17:48:30;;;;;;;4.40;2.93;;;23.60;94.90;;;;;;6177453;23;20395;-96
2021/06/27 17:50:57;;;;;;;5.70;3.03;;;23.60;96.60;;;;;;6194004;23;20396;-94
2021/06/27 17:53:25;;;;;;;5.18;3.20;;;23.40;97.00;;;;;;6192645;23;20387;-95
2021/06/27 17:56:16;;;;;;;3.78;3.08;;;23.20;98.20;;;;;;6193250;23;20407;-96
2021/06/27 17:58:44;;;;;;;5.07;3.10;;;22.90;99.40;;;;;;6223917;23;20390;-96
2021/06/27 18:01:17;;;;;;;6.03;3.20;;;22.70;99.90;;;;;;6198831;23;20387;-96
2021/06/27 18:03:44;;;;;;;5.22;3.17;;;22.40;99.90;;;;;;6194702;23;20372;-96
2021/06/27 18:06:12;;;;;;;4.93;3.50;;;22.10;99.90;;;;;;6192958;23;20388;-96
2021/06/27 18:17:19;;;;;;;4.65;3.40;;;22.10;99.90;;;;;;6205386;23;20887;-96
2021/06/27 18:20:01;;;;;;;6.55;3.50;;;22.10;99.90;;;;;;6176249;23;20900;-96
2021/06/27 18:29:23;;;;;;;3.85;3.45;;;22.40;99.90;;;;;;6101114;23;20374;-96
2021/06/27 18:32:00;;;;;;;4.40;3.35;;;22.00;99.90;;;;;;5961580;24;20496;-95
2021/06/27 18:34:53;;;;;;;7.53;3.80;;;21.80;99.90;;;;;;5963855;24;20801;-95
2021/06/27 18:37:49;;;;;;;4.53;3.38;;;21.60;99.90;;;;;;5983007;24;20447;-95
2021/06/27 18:40:43;;;;;;;5.80;3.45;;;21.40;99.90;;;;;;5982577;24;20903;-95
2021/06/27 18:43:15;;;;;;;5.22;3.60;;;21.20;99.90;;;;;;5975305;23;20419;-96
2021/06/27 18:45:51;;;;;;;4.45;3.70;;;20.70;99.90;;;;;;5993784;23;20911;-96
2021/06/27 18:48:22;;;;;;;5.47;3.63;;;20.70;99.90;;;;;;5960569;23;20480;-95
2021/06/27 18:50:55;;;;;;;4.05;3.58;;;20.50;99.90;;;;;;5982913;24;20748;-96
2021/06/27 18:53:41;;;;;;;7.28;4.18;;;20.30;99.90;;;;;;5982154;24;20393;-96
2021/06/27 18:56:15;;;;;;;4.53;4.07;;;19.90;99.90;;;;;;5963388;24;20484;-95
2021/06/27 18:59:42;;;;;;;6.22;4.00;;;19.60;99.90;;;;;;5984599;24;20429;-95
2021/06/27 19:06:06;;;;;;;7.87;4.10;;;19.30;99.90;;;;;;5983693;23;20367;-95
2021/06/27 19:09:50;;;;;;;4.90;4.10;;;19.20;99.90;;;;;;6051290;23;20466;-96
2021/06/27 19:13:21;;;;;;;8.45;4.43;;;19.10;99.90;;;;;;6030877;23;20396;-95
2021/06/27 19:16:31;;;;;;;4.68;4.25;;;18.90;99.90;;;;;;6044327;23;20379;-95
2021/06/27 19:19:45;;;;;;;6.30;4.40;;;18.70;99.90;;;;;;6052129;23;20402;-95
2021/06/27 19:22:40;;;;;;;5.78;3.95;;;18.50;99.90;;;;;;5933263;24;20407;-94
2021/06/27 19:25:10;;;;;;;5.70;4.20;;;18.50;99.90;;;;;;5931332;24;20736;-95
2021/06/27 19:27:39;;;;;;;6.93;4.13;;;18.40;99.90;;;;;;5937178;24;20478;-96
2021/06/27 19:30:11;;;;;;;5.65;4.28;;;18.40;99.90;;;;;;5935960;24;20833;-96
2021/06/27 19:32:40;;;;;;;6.78;4.10;;;18.30;99.90;;;;;;5933698;24;20430;-96
2021/06/27 19:35:24;;;;;;;5.60;4.40;;;18.20;99.90;;;;;;5934333;24;20422;-96
2021/06/27 19:37:51;;;;;;;8.20;4.60;;;18.30;99.90;;;;;;5933170;24;20925;-96
2021/06/27 19:40:18;;;;;;;5.80;4.57;;;18.50;99.90;;;;;;5933011;24;20506;-96
2021/06/27 19:42:46;;;;;;;5.05;4.50;;;18.20;99.90;;;;;;5933248;24;20406;-96
2021/06/27 19:45:14;;;;;;;7.20;4.70;;;18.20;99.90;;;;;;5933110;24;20502;-96
2021/06/27 19:47:41;;;;;;;6.47;4.55;;;18.20;99.90;;;;;;5934391;24;20403;-96
2021/06/27 19:50:10;;;;;;;7.90;4.43;;;18.10;99.90;;;;;;5933941;24;20402;-96
2021/06/27 19:52:38;;;;;;;6.88;4.60;;;18.10;99.90;;;;;;5975604;23;20396;-96
2021/06/27 19:55:09;;;;;;;6.25;4.50;;;18.00;99.90;;;;;;6045944;23;20971;-96
2021/06/27 19:57:44;;;;;;;6.43;4.65;;;17.90;99.90;;;;;;6050360;23;20396;-96
2021/06/27 20:00:20;;;;;;;4.45;4.03;;;17.80;99.90;;;;;;6157360;23;20404;-96
2021/06/27 20:03:12;;;;;;;7.63;4.63;;;17.80;99.90;;;;;;6203500;23;20734;-96
2021/06/27 20:06:04;;;;;;;6.57;4.78;;;17.80;99.90;;;;;;6175601;23;20381;-96
2021/06/27 20:08:31;;;;;;;9.95;4.53;;;17.80;99.90;;;;;;6174668;23;20376;-96
2021/06/27 20:10:59;;;;;;;6.38;4.50;;;17.80;99.90;;;;;;6167049;23;20402;-96
2021/06/27 20:13:30;;;;;;;7.25;4.38;;;17.80;99.90;;;;;;6145264;23;20409;-96
2021/06/27 20:16:05;;;;;;;5.70;4.38;;;17.90;99.90;;;;;;6158404;23;20456;31
2021/06/27 20:18:32;;;;;;;6.57;4.40;;;17.90;99.90;;;;;;6109843;23;20451;-96
2021/06/27 20:21:17;;;;;;;5.20;4.30;;;17.80;99.90;;;;;;6119417;23;20427;-96
2021/06/27 20:28:05;;;;;;;7.95;4.60;;;17.90;99.90;;;;;;6219386;23;20436;-96
2021/06/27 20:30:32;;;;;;;7.82;4.55;;;17.80;99.90;;;;;;6167868;23;20378;-96
2021/06/27 20:33:01;;;;;;;5.60;4.40;;;17.80;99.90;;;;;;6173666;23;20426;-96
2021/06/27 20:35:28;;;;;;;6.30;4.30;;;17.80;99.90;;;;;;6198859;23;20398;-96
2021/06/27 20:37:55;;;;;;;4.93;4.07;;;17.80;99.90;;;;;;6204501;23;20379;-96
2021/06/27 20:40:38;;;;;;;;;;;;;;;;;;;;;
2021/06/27 20:44:04;;;;;;;6.47;4.47;;;17.90;99.90;;;;;;6234833;23;20507;-97
2021/06/27 20:47:14;;;;;;;5.15;4.30;;;17.60;99.90;;;;;;6118482;23;20397;-96
2021/06/27 20:52:37;;;;;;;5.75;4.20;;;17.60;99.90;;;;;;6193775;23;20440;-96
2021/06/27 20:55:47;;;;;;;6.53;4.10;;;17.70;99.90;;;;;;6211340;23;20406;-96
2021/06/27 20:58:25;;;;;;;8.73;4.40;;;17.70;99.90;;;;;;6215405;23;20442;-96
2021/06/27 21:00:58;;;;;;;4.63;4.20;;;17.70;99.90;;;;;;6209308;23;20387;-96
2021/06/27 21:06:22;;;;;;;4.97;4.20;;;17.60;99.90;;;;;;6186013;23;20405;-96
2021/06/27 21:09:13;;;;;;;5.47;4.43;;;17.70;99.90;;;;;;6211103;23;20444;-96
2021/06/27 21:12:02;;;;;;;6.32;4.47;;;17.50;99.90;;;;;;6183902;23;20405;-96
2021/06/27 21:14:50;;;;;;;7.22;4.53;;;17.60;99.90;;;;;;6166486;23;20385;-96
2021/06/27 21:18:03;;;;;;;5.77;4.40;;;17.50;99.90;;;;;;6165710;23;20409;-96
2021/06/27 21:20:30;;;;;;;5.45;4.30;;;17.30;99.90;;;;;;6109996;23;20394;-96
2021/06/27 21:23:22;;;;;;;6.20;4.50;;;17.40;99.90;;;;;;6086177;23;20490;-96
2021/06/27 21:25:57;;;;;;;5.32;4.55;;;17.40;99.90;;;;;;6167388;23;20397;-95
2021/06/27 21:28:26;;;;;;;6.25;4.47;;;17.40;99.90;;;;;;6170593;23;20447;-96
2021/06/27 21:30:54;;;;;;;6.17;4.73;;;17.40;99.90;;;;;;6167637;23;20432;-96
2021/06/27 21:33:32;;;;;;;5.55;3.90;;;17.40;99.90;;;;;;6196824;23;20390;-96
2021/06/27 21:36:11;;;;;;;7.28;4.43;;;17.30;99.90;;;;;;6165981;23;20408;-96
2021/06/27 21:40:41;;;;;;;4.60;4.10;;;17.00;99.90;;;;;;5107965;22;20448;-96
2021/06/27 21:43:21;;;;;;;4.97;4.47;;;17.40;99.90;;;;;;5084250;28;20435;-96
2021/06/27 21:50:16;;;;;;;;;;;;;;;;;;;;;
2021/06/27 21:59:19;;;;;;;6.80;4.50;;;17.10;99.90;;;;;;5339065;23;20434;-96
2021/06/27 22:01:48;;;;;;;6.13;4.53;;;17.10;99.90;;;;;;4953210;23;20494;-96
2021/06/27 22:04:15;;;;;;;6.80;4.60;;;17.10;99.90;;;;;;5014531;28;20427;-95
